createdAt,value
2018-11-29T00:00:40.808Z,0.20
2018-11-29T00:03:10.552Z,0.30
2018-11-29T00:05:39.511Z,0.30
2018-11-29T00:08:08.056Z,0.40
2018-11-29T00:10:36.603Z,0.40
2018-11-29T00:13:05.404Z,0.40
2018-11-29T00:15:34.257Z,0.50
2018-11-29T00:18:02.821Z,0.50
2018-11-29T00:20:31.509Z,0.50
2018-11-29T00:23:00.060Z,0.50
2018-11-29T00:25:28.561Z,0.50
2018-11-29T00:27:57.081Z,0.50
2018-11-29T00:30:26.009Z,0.50
2018-11-29T00:32:55.345Z,0.50
2018-11-29T00:35:23.902Z,0.50
2018-11-29T00:37:52.447Z,0.50
2018-11-29T00:40:22.780Z,0.50
2018-11-29T00:42:51.572Z,0.60
2018-11-29T00:45:22.891Z,0.50
2018-11-29T00:47:51.901Z,0.60
2018-11-29T00:50:20.950Z,0.50
2018-11-29T00:52:50.182Z,0.50
2018-11-29T00:55:20.472Z,0.50
2018-11-29T00:57:49.010Z,0.40
2018-11-29T01:00:24.841Z,0.40
2018-11-29T01:02:53.474Z,0.30
2018-11-29T01:05:22.000Z,0.30
2018-11-29T01:07:50.489Z,0.40
2018-11-29T01:10:19.381Z,0.30
2018-11-29T01:12:48.570Z,0.30
2018-11-29T01:15:18.695Z,0.20
2018-11-29T01:17:48.072Z,0.20
2018-11-29T01:20:17.674Z,0.20
2018-11-29T01:22:46.205Z,0.20
2018-11-29T01:25:15.378Z,0.20
2018-11-29T01:27:44.949Z,0.20
2018-11-29T01:30:14.388Z,0.20
2018-11-29T01:32:42.883Z,0.20
2018-11-29T01:35:13.399Z,0.20
2018-11-29T01:37:41.987Z,0.20
2018-11-29T01:40:18.648Z,0.20
2018-11-29T01:42:48.434Z,0.20
2018-11-29T01:45:16.969Z,0.20
2018-11-29T01:47:45.549Z,0.20
2018-11-29T01:50:14.057Z,0.20
2018-11-29T01:52:42.635Z,0.20
2018-11-29T01:55:11.169Z,0.20
2018-11-29T01:57:39.683Z,0.20
2018-11-29T02:00:10.916Z,0.20
2018-11-29T02:02:39.431Z,0.20
2018-11-29T02:05:09.165Z,0.20
2018-11-29T02:07:37.777Z,0.10
2018-11-29T02:10:14.904Z,0.20
2018-11-29T02:12:43.465Z,0.20
2018-11-29T02:15:11.997Z,0.20
2018-11-29T02:17:40.553Z,0.10
2018-11-29T02:20:16.756Z,0.10
2018-11-29T02:22:45.359Z,0.20
2018-11-29T02:25:13.924Z,0.10
2018-11-29T02:27:42.521Z,0.10
2018-11-29T02:30:12.827Z,0.10
2018-11-29T02:32:41.549Z,0.10
2018-11-29T02:35:10.126Z,0.10
2018-11-29T02:37:38.626Z,0.10
2018-11-29T02:40:09.910Z,0.00
2018-11-29T02:42:38.422Z,0.00
2018-11-29T02:45:10.220Z,0.00
2018-11-29T02:47:38.716Z,0.00
2018-11-29T02:50:08.239Z,0.10
2018-11-29T02:52:36.768Z,0.00
2018-11-29T02:55:06.332Z,0.10
2018-11-29T02:57:35.078Z,0.00
2018-11-29T03:00:03.665Z,0.00
2018-11-29T03:02:32.207Z,0.00
2018-11-29T03:05:00.695Z,0.00
2018-11-29T03:07:29.177Z,-0.10
2018-11-29T03:09:57.668Z,-0.10
2018-11-29T03:12:26.232Z,-0.10
2018-11-29T03:14:54.754Z,-0.10
2018-11-29T03:17:23.280Z,-0.10
2018-11-29T03:19:51.754Z,-0.10
2018-11-29T03:22:20.278Z,0.00
2018-11-29T03:24:48.795Z,0.00
2018-11-29T03:27:17.373Z,0.00
2018-11-29T03:29:45.877Z,-0.10
2018-11-29T03:32:14.529Z,-0.10
2018-11-29T03:34:43.078Z,-0.10
2018-11-29T03:37:11.634Z,-0.10
2018-11-29T03:39:40.148Z,-0.10
2018-11-29T03:42:09.087Z,-0.10
2018-11-29T03:44:37.588Z,-0.10
2018-11-29T03:47:06.165Z,-0.10
2018-11-29T03:49:34.655Z,-0.10
2018-11-29T03:52:03.290Z,-0.10
2018-11-29T03:54:31.792Z,-0.20
2018-11-29T03:57:00.376Z,-0.10
2018-11-29T03:59:28.852Z,-0.20
2018-11-29T04:01:57.406Z,-0.10
2018-11-29T04:04:26.018Z,-0.10
2018-11-29T04:06:54.518Z,-0.10
2018-11-29T04:09:23.026Z,-0.10
2018-11-29T04:11:51.551Z,-0.10
2018-11-29T04:14:20.034Z,-0.20
2018-11-29T04:16:48.546Z,-0.20
2018-11-29T04:19:17.023Z,-0.20
2018-11-29T04:21:45.625Z,-0.20
2018-11-29T04:24:14.212Z,-0.20
2018-11-29T04:26:42.720Z,-0.20
2018-11-29T04:29:11.249Z,-0.30
2018-11-29T04:31:39.959Z,-0.20
2018-11-29T04:34:08.484Z,-0.20
2018-11-29T04:36:36.978Z,-0.20
2018-11-29T04:39:07.358Z,-0.20
2018-11-29T04:41:36.022Z,-0.20
2018-11-29T04:44:04.804Z,-0.20
2018-11-29T04:46:49.143Z,-0.20
2018-11-29T04:49:17.673Z,-0.20
2018-11-29T04:51:46.439Z,-0.20
2018-11-29T04:54:14.984Z,-0.20
2018-11-29T04:56:43.741Z,-0.10
2018-11-29T04:59:13.660Z,-0.20
2018-11-29T05:01:42.392Z,-0.10
2018-11-29T05:04:10.901Z,-0.20
2018-11-29T05:06:39.503Z,-0.20
2018-11-29T05:09:09.549Z,-0.10
2018-11-29T05:11:38.391Z,-0.10
2018-11-29T05:14:07.016Z,-0.10
2018-11-29T05:16:35.680Z,-0.10
2018-11-29T05:19:04.261Z,-0.10
2018-11-29T05:21:32.801Z,0.00
2018-11-29T05:24:01.306Z,-0.10
2018-11-29T05:26:29.794Z,0.00
2018-11-29T05:28:58.229Z,0.00
2018-11-29T05:31:26.730Z,0.00
2018-11-29T05:33:55.331Z,-0.10
2018-11-29T05:36:23.821Z,0.00
2018-11-29T05:38:52.306Z,0.00
2018-11-29T05:41:20.791Z,0.00
2018-11-29T05:43:49.360Z,0.00
2018-11-29T05:46:17.978Z,0.10
2018-11-29T05:48:46.489Z,0.10
2018-11-29T05:51:15.013Z,0.10
2018-11-29T05:53:43.494Z,0.10
2018-11-29T05:56:12.160Z,0.10
2018-11-29T05:58:40.625Z,0.20
2018-11-29T06:01:11.643Z,0.20
2018-11-29T06:03:40.190Z,0.20
2018-11-29T06:06:08.770Z,0.10
2018-11-29T06:08:43.283Z,0.20
2018-11-29T06:11:20.364Z,0.20
2018-11-29T06:13:53.728Z,0.20
2018-11-29T06:16:26.023Z,0.20
2018-11-29T06:19:12.327Z,0.20
2018-11-29T06:21:48.160Z,0.20
2018-11-29T06:24:22.804Z,0.20
2018-11-29T06:26:54.870Z,0.30
2018-11-29T06:29:28.776Z,0.30
2018-11-29T06:32:01.155Z,0.30
2018-11-29T06:34:34.038Z,0.30
2018-11-29T06:37:06.821Z,0.20
2018-11-29T06:39:38.374Z,0.30
2018-11-29T06:42:11.465Z,0.30
2018-11-29T06:44:44.623Z,0.30
2018-11-29T06:47:18.086Z,0.30
2018-11-29T06:49:54.226Z,0.30
2018-11-29T06:52:28.905Z,0.20
2018-11-29T06:55:02.960Z,0.20
2018-11-29T06:57:38.403Z,0.20
2018-11-29T07:00:38.425Z,0.20
2018-11-29T07:03:12.948Z,0.20
2018-11-29T07:05:47.268Z,0.20
2018-11-29T07:08:22.361Z,0.20
2018-11-29T07:10:56.009Z,0.30
2018-11-29T07:13:31.815Z,0.30
2018-11-29T07:16:09.663Z,0.30
2018-11-29T07:18:44.804Z,0.30
2018-11-29T07:21:29.877Z,0.30
2018-11-29T07:26:40.202Z,0.30
2018-11-29T07:29:18.719Z,0.30
2018-11-29T07:31:51.450Z,0.30
2018-11-29T07:34:31.708Z,0.30
2018-11-29T07:37:07.652Z,0.40
2018-11-29T07:39:41.200Z,0.50
2018-11-29T07:42:14.242Z,0.50
2018-11-29T07:44:47.086Z,0.50
2018-11-29T07:47:27.344Z,0.50
2018-11-29T07:50:01.208Z,0.70
2018-11-29T07:52:35.319Z,0.60
2018-11-29T07:55:28.708Z,0.60
2018-11-29T07:58:05.299Z,0.70
2018-11-29T08:00:37.733Z,0.70
2018-11-29T08:03:10.428Z,0.70
2018-11-29T08:05:45.259Z,0.80
2018-11-29T08:08:18.628Z,0.90
2018-11-29T08:10:50.971Z,0.80
2018-11-29T08:13:28.033Z,0.80
2018-11-29T08:16:00.717Z,1.00
2018-11-29T08:18:33.701Z,1.20
2018-11-29T08:21:12.027Z,1.90
2018-11-29T08:27:09.737Z,3.80
2018-11-29T08:32:59.127Z,4.80
2018-11-29T08:42:08.115Z,5.40
2018-11-29T08:53:51.911Z,3.50
2018-11-29T08:56:23.422Z,3.10
2018-11-29T08:58:56.755Z,3.10
2018-11-29T09:01:30.224Z,3.40
2018-11-29T09:04:03.956Z,3.90
2018-11-29T09:06:37.147Z,4.00
2018-11-29T09:09:11.155Z,4.60
2018-11-29T09:11:45.451Z,4.60
2018-11-29T09:14:17.855Z,4.10
2018-11-29T09:16:52.849Z,3.90
2018-11-29T09:19:27.308Z,4.00
2018-11-29T09:21:55.886Z,3.90
2018-11-29T09:24:24.412Z,3.80
2018-11-29T09:26:52.940Z,3.80
2018-11-29T09:29:21.436Z,4.10
2018-11-29T09:31:49.984Z,4.30
2018-11-29T09:34:18.489Z,4.70
2018-11-29T09:36:46.991Z,5.20
2018-11-29T09:39:15.525Z,5.90
2018-11-29T09:41:44.292Z,6.50
2018-11-29T09:44:12.852Z,7.20
2018-11-29T09:46:41.337Z,7.10
2018-11-29T09:49:09.866Z,6.90
2018-11-29T09:51:38.491Z,6.50
2018-11-29T09:54:06.986Z,6.20
2018-11-29T09:56:35.467Z,6.80
2018-11-29T09:59:04.045Z,7.50
2018-11-29T10:01:32.571Z,7.00
2018-11-29T10:04:01.559Z,7.40
2018-11-29T10:06:30.081Z,7.40
2018-11-29T10:08:58.678Z,7.30
2018-11-29T10:11:27.201Z,7.90
2018-11-29T10:13:55.802Z,8.40
2018-11-29T10:16:24.347Z,8.80
2018-11-29T10:18:53.130Z,9.50
2018-11-29T10:21:21.734Z,9.00
2018-11-29T10:23:50.227Z,8.70
2018-11-29T10:26:18.782Z,8.40
2018-11-29T10:28:47.287Z,7.40
2018-11-29T10:31:15.808Z,6.80
2018-11-29T10:33:44.321Z,6.70
2018-11-29T10:36:12.853Z,6.60
2018-11-29T10:38:41.568Z,6.50
2018-11-29T10:41:10.139Z,6.60
2018-11-29T10:43:38.668Z,7.20
2018-11-29T10:46:07.484Z,7.40
2018-11-29T10:48:36.135Z,6.90
2018-11-29T10:51:05.220Z,6.60
2018-11-29T10:53:37.737Z,6.10
2018-11-29T10:56:02.640Z,6.10
2018-11-29T10:58:31.160Z,6.00
2018-11-29T11:01:05.002Z,6.30
2018-11-29T11:03:33.499Z,6.50
2018-11-29T11:06:02.141Z,6.40
2018-11-29T11:08:30.743Z,6.00
2018-11-29T11:11:03.491Z,6.10
2018-11-29T11:13:32.017Z,5.60
2018-11-29T11:16:00.493Z,5.70
2018-11-29T11:18:29.005Z,5.80
2018-11-29T11:20:57.481Z,5.90
2018-11-29T11:23:26.039Z,6.30
2018-11-29T11:25:54.583Z,6.40
2018-11-29T11:28:23.095Z,6.80
2018-11-29T11:30:51.620Z,6.40
2018-11-29T11:33:20.171Z,6.60
2018-11-29T11:35:48.650Z,6.90
2018-11-29T11:38:17.164Z,7.20
2018-11-29T11:40:45.681Z,7.30
2018-11-29T11:43:14.213Z,7.30
2018-11-29T11:45:43.033Z,7.50
2018-11-29T11:48:11.534Z,7.40
2018-11-29T11:50:40.057Z,7.00
2018-11-29T11:53:09.372Z,7.20
2018-11-29T11:55:38.120Z,7.30
2018-11-29T11:58:07.665Z,6.90
2018-11-29T12:00:36.386Z,6.90
2018-11-29T12:03:09.463Z,6.80
2018-11-29T12:05:37.974Z,6.90
2018-11-29T12:08:06.685Z,6.90
2018-11-29T12:10:35.231Z,6.90
2018-11-29T12:13:03.894Z,7.00
2018-11-29T12:15:32.339Z,7.30
2018-11-29T12:18:00.951Z,7.20
2018-11-29T12:20:29.481Z,7.00
2018-11-29T12:22:57.999Z,6.90
2018-11-29T12:25:26.444Z,6.90
2018-11-29T12:27:54.829Z,6.70
2018-11-29T12:30:24.773Z,6.60
2018-11-29T12:32:54.890Z,6.50
2018-11-29T12:35:23.432Z,6.50
2018-11-29T12:37:53.189Z,6.50
2018-11-29T12:40:20.461Z,6.70
2018-11-29T12:42:48.998Z,6.60
2018-11-29T12:45:17.537Z,6.70
2018-11-29T12:47:46.033Z,6.70
2018-11-29T12:50:16.432Z,6.60
2018-11-29T12:52:44.952Z,6.50
2018-11-29T12:55:15.354Z,6.30
2018-11-29T12:57:44.028Z,6.20
2018-11-29T13:00:20.495Z,6.10
2018-11-29T13:02:55.915Z,6.00
2018-11-29T13:05:24.622Z,6.10
2018-11-29T13:07:53.051Z,6.10
2018-11-29T13:10:23.727Z,6.10
2018-11-29T13:12:51.456Z,6.00
2018-11-29T13:15:29.555Z,6.00
2018-11-29T13:17:59.089Z,5.90
2018-11-29T13:20:32.408Z,6.00
2018-11-29T13:22:56.369Z,6.10
2018-11-29T13:25:26.135Z,6.00
2018-11-29T13:27:54.679Z,6.10
2018-11-29T13:30:23.538Z,6.00
2018-11-29T13:32:54.397Z,6.10
2018-11-29T13:35:28.146Z,6.10
2018-11-29T13:37:57.948Z,6.00
2018-11-29T13:40:26.891Z,5.90
2018-11-29T13:42:55.430Z,5.90
2018-11-29T13:45:23.907Z,6.00
2018-11-29T13:47:52.513Z,6.00
2018-11-29T13:50:21.098Z,5.90
2018-11-29T13:52:49.592Z,5.80
2018-11-29T13:55:18.451Z,5.80
2018-11-29T13:57:49.747Z,5.80
2018-11-29T14:00:19.377Z,5.80
2018-11-29T14:02:49.221Z,5.70
2018-11-29T14:05:17.883Z,5.60
2018-11-29T14:07:46.477Z,5.60
2018-11-29T14:10:16.966Z,5.50
2018-11-29T14:12:46.255Z,5.50
2018-11-29T14:15:23.871Z,5.40
2018-11-29T14:17:52.370Z,5.30
2018-11-29T14:20:20.874Z,5.30
2018-11-29T14:22:49.381Z,5.20
2018-11-29T14:25:18.131Z,5.20
2018-11-29T14:27:47.888Z,5.20
2018-11-29T14:30:19.214Z,5.20
2018-11-29T14:32:47.988Z,5.10
2018-11-29T14:35:16.566Z,5.10
2018-11-29T14:37:45.123Z,5.10
2018-11-29T14:40:15.690Z,5.00
2018-11-29T14:42:44.254Z,5.10
2018-11-29T14:45:14.094Z,4.90
2018-11-29T14:47:42.883Z,4.90
2018-11-29T14:50:21.567Z,4.80
2018-11-29T14:52:50.835Z,4.80
2018-11-29T14:55:19.435Z,4.70
2018-11-29T14:57:47.999Z,4.60
2018-11-29T15:00:16.563Z,4.50
2018-11-29T15:02:45.109Z,4.50
2018-11-29T15:05:18.086Z,4.40
2018-11-29T15:07:46.665Z,4.20
2018-11-29T15:10:15.185Z,4.10
2018-11-29T15:12:43.709Z,4.00
2018-11-29T15:15:12.996Z,4.00
2018-11-29T15:17:42.504Z,4.00
2018-11-29T15:20:16.581Z,3.90
2018-11-29T15:22:45.150Z,3.80
2018-11-29T15:25:13.670Z,3.80
2018-11-29T15:27:42.216Z,3.70
2018-11-29T15:30:14.976Z,3.60
2018-11-29T15:32:43.624Z,3.50
2018-11-29T15:35:43.334Z,3.40
2018-11-29T15:38:12.491Z,3.40
2018-11-29T15:40:41.088Z,3.40
2018-11-29T15:43:09.691Z,3.30
2018-11-29T15:45:38.200Z,3.30
2018-11-29T15:48:06.701Z,3.30
2018-11-29T15:50:35.334Z,3.40
2018-11-29T15:53:45.031Z,3.40
2018-11-29T15:56:13.485Z,3.40
2018-11-29T15:58:41.988Z,3.50
2018-11-29T16:01:10.463Z,3.40
2018-11-29T16:03:38.994Z,3.60
2018-11-29T16:06:07.458Z,3.60
2018-11-29T16:08:36.006Z,3.60
2018-11-29T16:11:04.533Z,3.60
2018-11-29T16:13:32.991Z,3.60
2018-11-29T16:18:52.246Z,3.70
2018-11-29T16:21:20.923Z,3.60
2018-11-29T16:23:49.575Z,3.70
2018-11-29T16:26:18.026Z,3.70
2018-11-29T16:28:46.515Z,3.70
2018-11-29T16:31:15.008Z,3.70
2018-11-29T16:33:43.494Z,3.60
2018-11-29T16:36:11.996Z,3.70
2018-11-29T16:38:40.604Z,3.60
2018-11-29T16:41:09.110Z,3.60
2018-11-29T16:43:37.576Z,3.70
2018-11-29T16:46:06.090Z,3.60
2018-11-29T16:48:34.574Z,3.60
2018-11-29T16:51:03.086Z,3.60
2018-11-29T16:53:31.552Z,3.60
2018-11-29T16:56:00.061Z,3.60
2018-11-29T16:58:30.132Z,3.60
2018-11-29T17:00:58.638Z,3.60
2018-11-29T17:03:27.113Z,3.50
2018-11-29T17:05:55.592Z,3.60
2018-11-29T17:08:24.079Z,3.60
2018-11-29T17:10:52.566Z,3.60
2018-11-29T17:13:21.148Z,3.60
2018-11-29T17:15:49.594Z,3.60
2018-11-29T17:18:18.040Z,3.60
2018-11-29T17:20:46.469Z,3.50
2018-11-29T17:23:14.935Z,3.60
2018-11-29T17:25:43.448Z,3.60
2018-11-29T17:28:11.997Z,3.60
2018-11-29T17:30:40.619Z,3.50
2018-11-29T17:33:09.665Z,3.50
2018-11-29T17:35:38.288Z,3.50
2018-11-29T17:38:06.741Z,3.50
2018-11-29T17:40:35.920Z,3.50
2018-11-29T17:43:04.393Z,3.50
2018-11-29T17:45:32.835Z,3.50
2018-11-29T17:48:02.933Z,3.40
2018-11-29T17:50:34.529Z,3.50
2018-11-29T17:53:03.055Z,3.40
2018-11-29T17:55:31.533Z,3.40
2018-11-29T17:58:00.059Z,3.30
2018-11-29T18:00:30.269Z,3.30
2018-11-29T18:02:58.769Z,3.30
2018-11-29T18:05:27.327Z,3.30
2018-11-29T18:07:55.767Z,3.30
2018-11-29T18:10:26.531Z,3.30
2018-11-29T18:12:57.565Z,3.30
2018-11-29T18:15:27.407Z,3.30
2018-11-29T18:17:55.887Z,3.30
2018-11-29T18:20:24.328Z,3.30
2018-11-29T18:22:52.775Z,3.30
2018-11-29T18:25:21.267Z,3.30
2018-11-29T18:27:50.780Z,3.30
2018-11-29T18:30:21.297Z,3.30
2018-11-29T18:32:49.885Z,3.30
2018-11-29T18:35:18.376Z,3.20
2018-11-29T18:37:47.251Z,3.20
2018-11-29T18:40:22.355Z,3.20
2018-11-29T18:42:53.882Z,3.20
2018-11-29T18:45:22.467Z,3.20
2018-11-29T18:47:51.748Z,3.20
2018-11-29T18:50:21.229Z,3.20
2018-11-29T18:52:49.824Z,3.20
2018-11-29T18:55:18.597Z,3.20
2018-11-29T18:57:47.085Z,3.10
2018-11-29T19:00:18.801Z,3.10
2018-11-29T19:02:47.311Z,3.10
2018-11-29T19:05:15.830Z,3.10
2018-11-29T19:07:44.526Z,3.10
2018-11-29T19:10:15.800Z,3.00
2018-11-29T19:13:17.669Z,3.00
2018-11-29T19:15:46.127Z,3.00
2018-11-29T19:18:14.625Z,3.00
2018-11-29T19:20:43.196Z,3.00
2018-11-29T19:23:11.695Z,3.00
2018-11-29T19:25:40.157Z,3.00
2018-11-29T19:28:08.651Z,3.00
2018-11-29T19:30:37.657Z,3.00
2018-11-29T19:33:17.271Z,3.00
2018-11-29T19:35:42.629Z,3.00
2018-11-29T19:38:11.253Z,3.00
2018-11-29T19:40:39.902Z,3.00
2018-11-29T19:43:08.725Z,3.00
2018-11-29T19:45:37.268Z,2.90
2018-11-29T19:48:07.198Z,2.90
2018-11-29T19:50:35.883Z,2.90
2018-11-29T19:53:06.172Z,2.80
2018-11-29T19:55:34.891Z,2.80
2018-11-29T19:58:03.460Z,2.80
2018-11-29T20:00:32.002Z,2.80
2018-11-29T20:03:00.519Z,2.80
2018-11-29T20:05:29.025Z,2.80
2018-11-29T20:07:57.531Z,2.80
2018-11-29T20:10:26.036Z,2.80
2018-11-29T20:13:00.598Z,2.80
2018-11-29T20:15:29.122Z,2.80
2018-11-29T20:17:57.736Z,2.80
2018-11-29T20:20:26.249Z,2.80
2018-11-29T20:22:54.742Z,2.80
2018-11-29T20:25:24.544Z,2.80
2018-11-29T20:27:53.043Z,2.70
2018-11-29T20:30:22.521Z,2.70
2018-11-29T20:32:52.272Z,2.70
2018-11-29T20:35:20.809Z,2.70
2018-11-29T20:37:50.447Z,2.70
2018-11-29T20:40:21.997Z,2.60
2018-11-29T20:42:51.370Z,2.60
2018-11-29T20:45:25.199Z,2.60
2018-11-29T20:47:53.681Z,2.60
2018-11-29T20:50:23.595Z,2.60
2018-11-29T20:52:53.180Z,2.50
2018-11-29T20:55:25.062Z,2.60
2018-11-29T20:57:53.535Z,2.60
2018-11-29T21:00:21.987Z,2.60
2018-11-29T21:02:50.692Z,2.60
2018-11-29T21:05:20.223Z,2.50
2018-11-29T21:07:50.230Z,2.50
2018-11-29T21:10:21.050Z,2.50
2018-11-29T21:12:49.827Z,2.40
2018-11-29T21:15:18.382Z,2.40
2018-11-29T21:17:46.874Z,2.40
2018-11-29T21:20:17.421Z,2.40
2018-11-29T21:22:47.130Z,2.50
2018-11-29T21:25:20.010Z,2.40
2018-11-29T21:27:48.528Z,2.40
2018-11-29T21:30:17.254Z,2.30
2018-11-29T21:32:46.382Z,2.30
2018-11-29T21:35:16.081Z,2.30
2018-11-29T21:37:44.730Z,2.30
2018-11-29T21:40:16.014Z,2.30
2018-11-29T21:42:44.754Z,2.30
2018-11-29T21:45:13.274Z,2.20
2018-11-29T21:47:41.764Z,2.30
2018-11-29T21:50:10.276Z,2.30
2018-11-29T21:52:38.792Z,2.30
2018-11-29T21:55:08.021Z,2.30
2018-11-29T21:57:36.555Z,2.20
2018-11-29T22:00:16.367Z,2.20
2018-11-29T22:02:46.375Z,2.20
2018-11-29T22:05:14.898Z,2.20
2018-11-29T22:07:43.387Z,2.10
2018-11-29T22:10:11.870Z,2.10
2018-11-29T22:12:40.442Z,2.10
2018-11-29T22:15:10.927Z,2.00
2018-11-29T22:18:18.576Z,2.00
2018-11-29T22:20:48.146Z,2.00
2018-11-29T22:23:16.653Z,2.00
2018-11-29T22:25:45.197Z,2.00
2018-11-29T22:28:13.679Z,2.00
2018-11-29T22:30:42.152Z,2.00
2018-11-29T22:33:10.574Z,2.00
2018-11-29T22:35:39.047Z,1.90
2018-11-29T22:38:07.985Z,2.00
2018-11-29T22:40:36.707Z,2.00
2018-11-29T22:43:05.216Z,1.90
2018-11-29T22:45:33.717Z,1.80
2018-11-29T22:48:02.211Z,1.80
2018-11-29T22:50:30.732Z,1.80
2018-11-29T22:52:59.153Z,1.80
2018-11-29T22:55:27.675Z,1.70
2018-11-29T22:57:56.153Z,1.80
2018-11-29T23:00:24.649Z,1.80
2018-11-29T23:02:53.116Z,1.80
2018-11-29T23:05:21.893Z,1.80
2018-11-29T23:07:50.394Z,1.70
2018-11-29T23:10:18.877Z,1.70
2018-11-29T23:12:47.346Z,1.60
2018-11-29T23:15:15.860Z,1.60
2018-11-29T23:17:44.372Z,1.50
2018-11-29T23:20:13.266Z,1.50
2018-11-29T23:22:41.787Z,1.50
2018-11-29T23:25:11.713Z,1.50
2018-11-29T23:27:40.275Z,1.50
2018-11-29T23:30:13.886Z,1.40
2018-11-29T23:32:42.762Z,1.40
2018-11-29T23:35:11.951Z,1.40
2018-11-29T23:37:40.594Z,1.40
2018-11-29T23:40:12.262Z,1.40
2018-11-29T23:42:40.764Z,1.40
2018-11-29T23:45:10.509Z,1.40
2018-11-29T23:47:39.019Z,1.50
2018-11-29T23:50:13.829Z,1.40
2018-11-29T23:52:42.343Z,1.40
2018-11-29T23:55:13.235Z,1.40
2018-11-29T23:57:41.763Z,1.40
